createdAt,value
2023-03-21T00:00:35.967Z,54.50
2023-03-21T00:01:38.485Z,58.08
2023-03-21T00:02:41.365Z,59.65
2023-03-21T00:03:44.147Z,57.50
2023-03-21T00:04:52.292Z,52.33
2023-03-21T00:05:56.311Z,46.13
2023-03-21T00:06:58.881Z,56.97
2023-03-21T00:08:02.672Z,56.50
2023-03-21T00:09:05.369Z,58.33
2023-03-21T00:10:15.416Z,61.22
2023-03-21T00:11:21.807Z,52.13
2023-03-21T00:12:24.323Z,54.97
2023-03-21T00:13:28.502Z,56.35
2023-03-21T00:14:31.162Z,62.47
2023-03-21T00:15:41.325Z,50.80
2023-03-21T00:16:51.961Z,58.63
2023-03-21T00:18:03.570Z,51.25
2023-03-21T00:19:07.048Z,54.45
2023-03-21T00:20:15.451Z,58.60
2023-03-21T00:22:43.060Z,54.15
2023-03-21T00:23:49.059Z,53.33
2023-03-21T00:24:52.412Z,50.20
2023-03-21T00:25:54.944Z,62.75
2023-03-21T00:27:06.031Z,55.50
2023-03-21T00:29:20.741Z,52.80
2023-03-21T00:30:24.095Z,52.50
2023-03-21T00:31:26.734Z,57.55
2023-03-21T00:32:29.260Z,61.33
2023-03-21T00:33:31.775Z,49.22
2023-03-21T00:34:42.881Z,55.75
2023-03-21T00:36:01.786Z,53.70
2023-03-21T00:37:07.418Z,48.25
2023-03-21T00:38:10.799Z,50.72
2023-03-21T00:39:14.261Z,54.83
2023-03-21T00:40:26.726Z,57.10
2023-03-21T00:41:42.032Z,56.97
2023-03-21T00:42:45.946Z,48.90
2023-03-21T00:43:48.464Z,49.60
2023-03-21T00:44:51.230Z,50.33
2023-03-21T00:45:53.748Z,52.75
2023-03-21T00:47:06.498Z,54.60
2023-03-21T00:48:10.838Z,54.65
2023-03-21T00:49:13.444Z,47.38
2023-03-21T00:50:16.786Z,60.20
2023-03-21T00:51:26.754Z,64.47
2023-03-21T00:52:40.253Z,54.80
2023-03-21T00:53:43.558Z,60.88
2023-03-21T00:54:46.195Z,55.53
2023-03-21T00:55:49.810Z,58.60
2023-03-21T00:56:52.315Z,59.35
2023-03-21T00:58:01.516Z,50.58
2023-03-21T00:59:04.566Z,54.97
2023-03-21T01:00:10.842Z,56.38
2023-03-21T01:01:13.504Z,61.83
2023-03-21T01:02:22.807Z,57.33
2023-03-21T01:03:26.797Z,50.20
2023-03-21T01:04:29.397Z,51.83
2023-03-21T01:05:57.248Z,54.00
2023-03-21T01:07:00.247Z,54.80
2023-03-21T01:08:05.997Z,49.47
2023-03-21T01:09:19.448Z,53.80
2023-03-21T01:10:22.328Z,58.03
2023-03-21T01:11:28.566Z,57.38
2023-03-21T01:12:31.083Z,55.70
2023-03-21T01:13:36.368Z,58.35
2023-03-21T01:14:39.006Z,58.35
2023-03-21T01:15:48.015Z,73.38
2023-03-21T01:16:52.440Z,61.08
2023-03-21T01:17:54.970Z,63.97
2023-03-21T01:18:57.726Z,58.70
2023-03-21T01:20:00.497Z,57.03
2023-03-21T01:21:08.528Z,57.63
2023-03-21T01:22:11.287Z,61.72
2023-03-21T01:23:15.493Z,60.85
2023-03-21T01:24:17.891Z,61.65
2023-03-21T01:25:22.639Z,63.15
2023-03-21T01:26:25.932Z,67.38
2023-03-21T01:27:28.333Z,63.92
2023-03-21T01:28:30.982Z,59.72
2023-03-21T01:29:33.497Z,71.90
2023-03-21T01:30:41.711Z,69.68
2023-03-21T01:31:44.564Z,54.95
2023-03-21T01:32:47.412Z,71.38
2023-03-21T01:33:49.941Z,65.22
2023-03-21T01:34:52.574Z,65.47
2023-03-21T01:36:10.299Z,82.70
2023-03-21T01:37:15.140Z,68.53
2023-03-21T01:38:26.179Z,75.57
2023-03-21T01:39:28.817Z,61.05
2023-03-21T01:40:31.699Z,64.10
2023-03-21T01:41:45.745Z,60.45
2023-03-21T01:42:54.624Z,71.30
2023-03-21T01:43:58.343Z,72.72
2023-03-21T01:45:44.679Z,61.40
2023-03-21T01:47:03.658Z,69.22
2023-03-21T01:48:38.906Z,63.95
2023-03-21T01:49:46.498Z,66.20
2023-03-21T01:50:56.906Z,69.90
2023-03-21T01:52:21.256Z,59.72
2023-03-21T01:53:31.227Z,71.13
2023-03-21T01:54:38.674Z,59.50
2023-03-21T01:55:42.035Z,59.00
2023-03-21T01:56:57.870Z,67.43
2023-03-21T01:58:07.087Z,73.43
2023-03-21T01:59:32.195Z,63.45
2023-03-21T02:01:04.982Z,59.72
2023-03-21T02:02:28.475Z,65.35
2023-03-21T02:03:54.692Z,57.00
2023-03-21T02:05:47.196Z,64.15
2023-03-21T02:06:51.757Z,57.95
2023-03-21T02:08:17.081Z,66.13
2023-03-21T02:09:24.157Z,66.22
2023-03-21T02:10:29.677Z,71.20
2023-03-21T02:11:33.759Z,66.75
2023-03-21T02:12:36.409Z,66.40
2023-03-21T02:13:39.290Z,69.88
2023-03-21T02:14:45.520Z,65.82
2023-03-21T02:16:11.321Z,69.63
2023-03-21T02:17:30.767Z,69.55
2023-03-21T02:19:03.889Z,69.05
2023-03-21T02:20:25.455Z,63.08
2023-03-21T02:21:41.093Z,64.63
2023-03-21T02:22:50.691Z,65.13
2023-03-21T02:24:10.609Z,67.95
2023-03-21T02:25:27.648Z,65.55
2023-03-21T02:26:52.479Z,65.38
2023-03-21T02:28:19.380Z,68.05
2023-03-21T02:29:43.255Z,64.25
2023-03-21T02:30:58.133Z,65.75
2023-03-21T02:32:36.547Z,69.53
2023-03-21T02:33:47.456Z,70.40
2023-03-21T02:35:18.180Z,64.55
2023-03-21T02:36:56.218Z,65.32
2023-03-21T02:38:18.297Z,67.50
2023-03-21T02:39:23.752Z,63.33
2023-03-21T02:40:37.962Z,68.43
2023-03-21T02:41:59.103Z,61.63
2023-03-21T02:43:22.999Z,66.60
2023-03-21T02:44:32.597Z,65.55
2023-03-21T02:45:58.206Z,62.33
2023-03-21T02:47:06.652Z,60.63
2023-03-21T02:48:44.537Z,64.18
2023-03-21T02:50:04.272Z,58.78
2023-03-21T02:51:11.232Z,56.45
2023-03-21T02:52:35.400Z,59.15
2023-03-21T02:53:44.887Z,64.95
2023-03-21T02:54:49.868Z,59.72
2023-03-21T02:55:57.553Z,72.70
2023-03-21T02:57:04.512Z,67.40
2023-03-21T02:58:13.562Z,72.07
2023-03-21T02:59:30.673Z,56.90
2023-03-21T03:00:37.273Z,66.82
2023-03-21T03:01:40.646Z,62.88
2023-03-21T03:02:43.762Z,66.75
2023-03-21T03:03:47.630Z,75.50
2023-03-21T03:04:50.240Z,65.45
2023-03-21T03:05:57.201Z,67.88
2023-03-21T03:07:27.925Z,68.25
2023-03-21T03:08:43.203Z,65.65
2023-03-21T03:10:11.244Z,60.47
2023-03-21T03:11:29.843Z,70.30
2023-03-21T03:12:35.483Z,57.85
2023-03-21T03:14:35.884Z,59.55
2023-03-21T03:15:48.163Z,66.45
2023-03-21T03:17:02.853Z,70.50
2023-03-21T03:18:21.216Z,70.82
2023-03-21T03:19:44.658Z,79.97
2023-03-21T03:21:26.248Z,72.57
2023-03-21T03:22:39.461Z,63.65
2023-03-21T03:23:47.256Z,72.30
2023-03-21T03:25:02.785Z,73.90
2023-03-21T03:26:21.822Z,58.55
2023-03-21T03:27:29.858Z,75.20
2023-03-21T03:28:41.383Z,66.10
2023-03-21T03:29:52.176Z,71.85
2023-03-21T03:31:09.303Z,61.97
2023-03-21T03:32:25.696Z,73.90
2023-03-21T03:33:29.745Z,70.60
2023-03-21T03:34:49.787Z,68.63
2023-03-21T03:36:04.927Z,71.35
2023-03-21T03:37:17.992Z,68.68
2023-03-21T03:38:24.103Z,75.07
2023-03-21T03:39:35.989Z,73.18
2023-03-21T03:40:46.539Z,65.50
2023-03-21T03:42:27.110Z,64.30
2023-03-21T03:43:47.021Z,67.20
2023-03-21T03:44:49.902Z,71.63
2023-03-21T03:45:58.784Z,69.85
2023-03-21T03:47:17.538Z,75.30
2023-03-21T03:48:35.178Z,66.60
2023-03-21T03:49:52.668Z,70.07
2023-03-21T03:51:03.611Z,79.72
2023-03-21T03:52:55.398Z,66.78
2023-03-21T03:54:10.343Z,62.72
2023-03-21T03:55:16.339Z,69.95
2023-03-21T03:56:21.001Z,69.78
2023-03-21T03:57:26.274Z,71.53
2023-03-21T03:58:44.542Z,72.75
2023-03-21T03:59:49.198Z,77.65
2023-03-21T04:00:56.040Z,73.22
2023-03-21T04:01:58.952Z,65.50
2023-03-21T04:03:01.712Z,77.15
2023-03-21T04:04:13.030Z,74.57
2023-03-21T04:05:21.198Z,76.32
2023-03-21T04:06:24.489Z,81.13
2023-03-21T04:07:27.987Z,76.45
2023-03-21T04:08:34.565Z,76.68
2023-03-21T04:09:44.204Z,78.85
2023-03-21T04:10:49.571Z,76.90
2023-03-21T04:11:52.204Z,78.85
2023-03-21T04:12:55.329Z,84.68
2023-03-21T04:14:06.368Z,78.60
2023-03-21T04:15:11.290Z,73.45
2023-03-21T04:16:19.377Z,74.57
2023-03-21T04:17:22.330Z,82.90
2023-03-21T04:18:24.854Z,75.57
2023-03-21T04:19:27.372Z,73.55
2023-03-21T04:20:36.883Z,76.85
2023-03-21T04:21:40.571Z,72.18
2023-03-21T04:22:43.478Z,81.65
2023-03-21T04:23:46.099Z,73.00
2023-03-21T04:24:48.616Z,74.07
2023-03-21T04:25:56.602Z,81.85
2023-03-21T04:27:10.108Z,74.93
2023-03-21T04:28:15.738Z,80.65
2023-03-21T04:29:22.338Z,87.70
2023-03-21T04:31:01.394Z,75.72
2023-03-21T04:32:16.288Z,72.38
2023-03-21T04:33:27.275Z,87.13
2023-03-21T04:34:32.784Z,75.80
2023-03-21T04:35:38.442Z,77.50
2023-03-21T04:36:49.606Z,86.38
2023-03-21T04:37:52.100Z,81.78
2023-03-21T04:38:55.100Z,70.60
2023-03-21T04:39:57.504Z,84.57
2023-03-21T04:41:01.344Z,84.38
2023-03-21T04:42:05.789Z,87.68
2023-03-21T04:43:08.322Z,93.18
2023-03-21T04:44:16.616Z,99.30
2023-03-21T04:45:19.479Z,73.90
2023-03-21T04:46:23.306Z,74.32
2023-03-21T04:47:26.668Z,84.25
2023-03-21T04:48:30.995Z,83.95
2023-03-21T04:49:35.429Z,87.03
2023-03-21T04:50:38.708Z,85.63
2023-03-21T04:51:41.788Z,89.90
2023-03-21T04:52:47.193Z,92.22
2023-03-21T04:53:52.579Z,93.57
2023-03-21T04:54:55.367Z,92.45
2023-03-21T04:55:58.711Z,82.45
2023-03-21T04:57:01.477Z,87.93
2023-03-21T04:58:04.954Z,82.78
2023-03-21T04:59:10.835Z,94.38
2023-03-21T05:00:15.042Z,95.25
2023-03-21T05:01:20.262Z,98.93
2023-03-21T05:02:23.674Z,78.85
2023-03-21T05:03:26.197Z,83.93
2023-03-21T05:04:29.011Z,90.40
2023-03-21T05:05:31.854Z,87.43
2023-03-21T05:06:34.484Z,86.32
2023-03-21T05:07:38.575Z,85.85
2023-03-21T05:08:41.556Z,88.97
2023-03-21T05:09:46.845Z,91.25
2023-03-21T05:10:52.963Z,85.10
2023-03-21T05:11:56.678Z,80.18
2023-03-21T05:12:59.325Z,86.88
2023-03-21T05:14:05.323Z,87.68
2023-03-21T05:15:08.682Z,96.55
2023-03-21T05:16:12.179Z,93.20
2023-03-21T05:17:23.335Z,94.22
2023-03-21T05:18:26.807Z,96.00
2023-03-21T05:19:40.758Z,84.25
2023-03-21T05:20:43.609Z,84.82
2023-03-21T05:21:46.725Z,96.63
2023-03-21T05:22:53.208Z,88.07
2023-03-21T05:23:58.437Z,95.80
2023-03-21T05:25:01.008Z,93.40
2023-03-21T05:26:17.346Z,83.65
2023-03-21T05:27:36.572Z,79.18
2023-03-21T05:28:44.712Z,98.47
2023-03-21T05:29:47.691Z,86.53
2023-03-21T05:30:51.561Z,77.15
2023-03-21T05:31:54.544Z,96.32
2023-03-21T05:32:57.551Z,84.43
2023-03-21T05:34:00.533Z,77.10
2023-03-21T05:35:03.175Z,77.25
2023-03-21T05:36:05.873Z,75.55
2023-03-21T05:37:09.178Z,88.65
2023-03-21T05:38:24.419Z,94.47
2023-03-21T05:39:28.742Z,80.32
2023-03-21T05:40:47.458Z,74.18
2023-03-21T05:41:49.870Z,85.38
2023-03-21T05:42:52.523Z,85.70
2023-03-21T05:43:58.861Z,82.45
2023-03-21T05:45:01.624Z,74.13
2023-03-21T05:46:07.184Z,89.05
2023-03-21T05:47:09.783Z,79.72
2023-03-21T05:48:17.505Z,83.25
2023-03-21T05:49:38.947Z,75.18
2023-03-21T05:50:42.665Z,81.93
2023-03-21T05:51:51.310Z,77.10
2023-03-21T05:52:53.947Z,91.90
2023-03-21T05:53:56.469Z,79.75
2023-03-21T05:54:59.228Z,82.30
2023-03-21T05:56:03.674Z,87.82
2023-03-21T05:57:28.889Z,74.93
2023-03-21T05:58:37.750Z,77.22
2023-03-21T05:59:40.520Z,79.72
2023-03-21T06:00:43.515Z,75.13
2023-03-21T06:02:00.808Z,87.85
2023-03-21T06:03:03.358Z,82.90
2023-03-21T06:04:27.678Z,78.43
2023-03-21T06:05:30.463Z,72.07
2023-03-21T06:06:33.681Z,88.40
2023-03-21T06:07:37.280Z,89.25
2023-03-21T06:08:40.043Z,88.70
2023-03-21T06:09:42.562Z,92.70
2023-03-21T06:10:45.083Z,84.10
2023-03-21T06:11:50.968Z,73.35
2023-03-21T06:13:29.243Z,78.50
2023-03-21T06:14:31.766Z,71.13
2023-03-21T06:16:03.622Z,71.25
2023-03-21T06:17:09.207Z,92.80
2023-03-21T06:18:18.207Z,70.20
2023-03-21T06:19:31.412Z,79.88
2023-03-21T06:20:44.011Z,72.20
2023-03-21T06:21:48.813Z,71.57
2023-03-21T06:22:51.330Z,76.95
2023-03-21T06:23:54.245Z,72.60
2023-03-21T06:24:56.732Z,75.80
2023-03-21T06:25:59.267Z,66.18
2023-03-21T06:27:04.071Z,71.55
2023-03-21T06:28:17.996Z,66.72
2023-03-21T06:29:20.494Z,66.78
2023-03-21T06:30:24.969Z,75.40
2023-03-21T06:31:49.686Z,60.83
2023-03-21T06:32:53.136Z,67.82
2023-03-21T06:33:56.016Z,63.63
2023-03-21T06:34:58.775Z,67.88
2023-03-21T06:36:01.314Z,65.97
2023-03-21T06:37:04.656Z,63.15
2023-03-21T06:38:09.817Z,61.13
2023-03-21T06:39:13.814Z,64.97
2023-03-21T06:40:17.381Z,59.75
2023-03-21T06:41:20.865Z,57.58
2023-03-21T06:42:33.108Z,57.38
2023-03-21T06:43:42.587Z,65.65
2023-03-21T06:44:45.101Z,57.80
2023-03-21T06:45:50.388Z,56.38
2023-03-21T06:46:53.175Z,55.10
2023-03-21T06:47:55.832Z,55.85
2023-03-21T06:49:22.671Z,58.20
2023-03-21T06:50:25.315Z,56.83
2023-03-21T06:51:27.836Z,48.80
2023-03-21T06:52:51.151Z,54.35
2023-03-21T06:53:53.871Z,58.63
2023-03-21T06:55:19.432Z,55.42
2023-03-21T06:56:22.310Z,53.83
2023-03-21T06:57:24.954Z,53.25
2023-03-21T06:58:28.201Z,51.22
2023-03-21T06:59:31.317Z,54.38
2023-03-21T07:00:39.286Z,54.35
2023-03-21T07:01:44.875Z,52.50
2023-03-21T07:02:50.628Z,58.30
2023-03-21T07:03:56.769Z,50.42
2023-03-21T07:05:00.001Z,51.85
2023-03-21T07:06:07.315Z,48.58
2023-03-21T07:07:10.438Z,56.75
2023-03-21T07:08:14.280Z,48.38
2023-03-21T07:09:18.005Z,47.35
2023-03-21T07:10:21.000Z,48.80
2023-03-21T07:11:30.125Z,46.15
2023-03-21T07:12:34.443Z,49.38
2023-03-21T07:13:55.582Z,39.70
2023-03-21T07:14:59.172Z,47.15
2023-03-21T07:16:02.194Z,42.63
2023-03-21T07:17:04.814Z,41.88
2023-03-21T07:18:09.853Z,40.08
2023-03-21T07:19:12.487Z,39.88
2023-03-21T07:20:15.128Z,45.08
2023-03-21T07:21:18.008Z,46.70
2023-03-21T07:22:20.890Z,37.13
2023-03-21T07:23:26.298Z,41.00
2023-03-21T07:24:29.772Z,37.35
2023-03-21T07:25:32.362Z,41.25
2023-03-21T07:26:34.934Z,42.92
2023-03-21T07:27:40.926Z,40.63
2023-03-21T07:28:44.302Z,38.28
2023-03-21T07:29:47.546Z,42.63
2023-03-21T07:30:58.454Z,38.58
2023-03-21T07:32:01.644Z,33.42
2023-03-21T07:33:04.960Z,42.97
2023-03-21T07:34:07.459Z,35.03
2023-03-21T07:35:14.904Z,34.35
2023-03-21T07:36:17.850Z,32.50
2023-03-21T07:37:21.024Z,42.20
2023-03-21T07:38:24.740Z,32.20
2023-03-21T07:39:27.861Z,30.80
2023-03-21T07:40:31.229Z,34.13
2023-03-21T07:41:34.103Z,32.30
2023-03-21T07:42:50.675Z,35.13
2023-03-21T07:44:04.348Z,38.97
2023-03-21T07:45:10.840Z,36.50
2023-03-21T07:46:13.504Z,33.25
2023-03-21T07:47:16.112Z,34.08
2023-03-21T07:48:19.273Z,30.70
2023-03-21T07:49:21.753Z,30.23
2023-03-21T07:50:24.288Z,28.10
2023-03-21T07:51:26.801Z,28.73
2023-03-21T07:52:29.188Z,27.52
2023-03-21T07:53:31.713Z,31.23
2023-03-21T07:54:34.355Z,32.42
2023-03-21T07:55:37.190Z,30.52
2023-03-21T07:56:39.876Z,34.30
2023-03-21T07:57:42.410Z,28.40
2023-03-21T07:58:44.921Z,33.13
2023-03-21T07:59:47.432Z,31.08
2023-03-21T08:00:50.078Z,22.38
2023-03-21T08:01:52.771Z,30.98
2023-03-21T08:02:58.848Z,31.75
2023-03-21T08:04:01.480Z,30.10
2023-03-21T08:05:05.321Z,24.83
2023-03-21T08:06:08.317Z,26.15
2023-03-21T08:07:11.685Z,28.95
2023-03-21T08:08:14.204Z,28.02
2023-03-21T08:09:16.722Z,26.67
2023-03-21T08:10:19.479Z,26.17
2023-03-21T08:11:22.245Z,28.77
2023-03-21T08:12:25.127Z,25.83
2023-03-21T08:13:27.879Z,24.92
2023-03-21T08:14:30.643Z,27.55
2023-03-21T08:15:33.162Z,25.50
2023-03-21T08:16:35.728Z,26.40
2023-03-21T08:17:39.895Z,30.13
2023-03-21T08:18:42.892Z,25.02
2023-03-21T08:19:45.649Z,24.92
2023-03-21T08:20:55.730Z,23.92
2023-03-21T08:21:59.931Z,24.67
2023-03-21T08:23:02.570Z,22.15
2023-03-21T08:24:07.132Z,21.50
2023-03-21T08:25:13.858Z,22.00
2023-03-21T08:26:18.533Z,21.33
2023-03-21T08:27:21.057Z,22.83
2023-03-21T08:28:23.820Z,21.25
2023-03-21T08:29:27.177Z,18.60
2023-03-21T08:30:29.899Z,19.65
2023-03-21T08:31:32.717Z,22.40
2023-03-21T08:32:35.221Z,19.80
2023-03-21T08:33:37.979Z,25.85
2023-03-21T08:34:42.779Z,22.30
2023-03-21T08:35:46.270Z,25.90
2023-03-21T08:36:49.019Z,24.30
2023-03-21T08:37:51.660Z,22.17
2023-03-21T08:39:05.254Z,20.13
2023-03-21T08:40:11.521Z,30.00
2023-03-21T08:41:14.942Z,20.98
2023-03-21T08:42:18.190Z,21.23
2023-03-21T08:43:20.829Z,22.23
2023-03-21T08:44:25.381Z,18.35
2023-03-21T08:45:28.028Z,19.75
2023-03-21T08:46:30.711Z,20.80
2023-03-21T08:47:33.308Z,21.60
2023-03-21T08:48:38.855Z,19.00
2023-03-21T08:49:42.310Z,19.02
2023-03-21T08:50:44.950Z,23.20
2023-03-21T08:51:47.469Z,17.52
2023-03-21T08:52:50.472Z,18.08
2023-03-21T08:53:53.064Z,19.42
2023-03-21T08:54:55.753Z,16.40
2023-03-21T08:55:58.391Z,18.20
2023-03-21T08:57:01.152Z,16.23
2023-03-21T08:58:03.796Z,19.33
2023-03-21T08:59:06.195Z,16.20
2023-03-21T09:00:14.674Z,19.08
2023-03-21T09:01:17.234Z,16.60
2023-03-21T09:02:19.767Z,17.65
2023-03-21T09:03:22.396Z,18.45
2023-03-21T09:04:26.224Z,21.58
2023-03-21T09:05:28.759Z,21.05
2023-03-21T09:06:33.561Z,20.05
2023-03-21T09:07:36.562Z,20.05
2023-03-21T09:08:39.455Z,17.17
2023-03-21T09:09:42.330Z,21.05
2023-03-21T09:10:44.854Z,18.80
2023-03-21T09:11:47.365Z,18.30
2023-03-21T09:12:51.819Z,19.85
2023-03-21T09:13:54.444Z,21.98
2023-03-21T09:14:57.084Z,18.33
2023-03-21T09:16:01.493Z,19.15
2023-03-21T09:17:04.181Z,19.58
2023-03-21T09:18:23.129Z,19.70
2023-03-21T09:19:26.019Z,21.38
2023-03-21T09:20:33.049Z,17.85
2023-03-21T09:21:36.214Z,18.48
2023-03-21T09:22:42.312Z,22.60
2023-03-21T09:23:45.448Z,19.23
2023-03-21T09:24:48.810Z,21.23
2023-03-21T09:25:51.572Z,21.38
2023-03-21T09:26:54.111Z,20.73
2023-03-21T09:27:58.191Z,21.60
2023-03-21T09:29:01.176Z,16.35
2023-03-21T09:30:06.108Z,17.58
2023-03-21T09:31:11.948Z,15.18
2023-03-21T09:32:14.507Z,19.38
2023-03-21T09:33:21.354Z,18.27
2023-03-21T09:34:25.658Z,19.65
2023-03-21T09:35:29.145Z,21.65
2023-03-21T09:36:35.148Z,15.90
2023-03-21T09:37:42.353Z,18.90
2023-03-21T09:38:46.788Z,18.95
2023-03-21T09:39:51.344Z,17.15
2023-03-21T09:41:12.459Z,20.67
2023-03-21T09:42:27.344Z,13.75
2023-03-21T09:43:47.379Z,16.30
2023-03-21T09:44:59.150Z,18.45
2023-03-21T09:46:26.084Z,18.63
2023-03-21T09:47:34.805Z,17.58
2023-03-21T09:48:57.138Z,16.00
2023-03-21T09:50:15.036Z,16.27
2023-03-21T09:51:19.549Z,16.90
2023-03-21T09:52:29.028Z,14.75
2023-03-21T09:53:39.961Z,16.70
2023-03-21T09:54:44.801Z,19.05
2023-03-21T09:55:47.996Z,15.88
2023-03-21T09:56:54.710Z,14.07
2023-03-21T09:57:57.237Z,17.83
2023-03-21T09:59:01.673Z,19.33
2023-03-21T10:00:09.475Z,17.67
2023-03-21T10:01:27.311Z,16.70
2023-03-21T10:02:38.401Z,21.30
2023-03-21T10:03:41.875Z,20.73
2023-03-21T10:04:46.663Z,23.90
2023-03-21T10:05:50.650Z,22.13
2023-03-21T10:07:02.276Z,19.13
2023-03-21T10:08:16.217Z,16.73
2023-03-21T10:09:23.035Z,17.80
2023-03-21T10:10:29.518Z,19.38
2023-03-21T10:11:45.000Z,15.90
2023-03-21T10:12:49.577Z,17.90
2023-03-21T10:14:01.926Z,19.58
2023-03-21T10:15:05.640Z,15.75
2023-03-21T10:16:27.481Z,15.05
2023-03-21T10:17:34.445Z,12.10
2023-03-21T10:18:39.849Z,13.95
2023-03-21T10:19:46.575Z,15.13
2023-03-21T10:20:51.009Z,16.23
2023-03-21T10:22:03.044Z,15.80
2023-03-21T10:23:09.013Z,14.43
2023-03-21T10:24:14.050Z,22.65
2023-03-21T10:25:44.611Z,17.55
2023-03-21T10:26:48.146Z,14.40
2023-03-21T10:27:52.704Z,18.08
2023-03-21T10:28:57.983Z,15.55
2023-03-21T10:30:01.210Z,15.00
2023-03-21T10:31:07.466Z,14.07
2023-03-21T10:32:13.931Z,15.65
2023-03-21T10:33:20.814Z,18.25
2023-03-21T10:34:44.589Z,16.73
2023-03-21T10:35:52.371Z,18.75
2023-03-21T10:36:54.982Z,20.92
2023-03-21T10:37:57.497Z,17.25
2023-03-21T10:39:02.061Z,16.35
2023-03-21T10:40:07.581Z,23.02
2023-03-21T10:41:11.658Z,19.35
2023-03-21T10:42:25.834Z,17.70
2023-03-21T10:43:28.218Z,17.40
2023-03-21T10:44:33.136Z,16.75
2023-03-21T10:45:36.319Z,16.30
2023-03-21T10:46:39.250Z,16.80
2023-03-21T10:47:42.188Z,16.08
2023-03-21T10:48:50.316Z,21.48
2023-03-21T10:50:10.262Z,22.70
2023-03-21T10:51:19.347Z,14.13
2023-03-21T10:52:27.752Z,20.25
2023-03-21T10:53:35.316Z,16.58
2023-03-21T10:54:37.838Z,19.58
2023-03-21T10:55:42.144Z,18.90
2023-03-21T10:56:57.053Z,23.58
2023-03-21T10:58:18.935Z,17.63
2023-03-21T10:59:23.548Z,18.23
2023-03-21T11:00:30.279Z,18.00
2023-03-21T11:01:39.364Z,15.32
2023-03-21T11:02:43.091Z,16.17
2023-03-21T11:03:48.273Z,14.18
2023-03-21T11:04:53.223Z,18.02
2023-03-21T11:05:57.520Z,20.88
2023-03-21T11:07:07.613Z,20.05
2023-03-21T11:08:16.232Z,17.70
2023-03-21T11:09:21.998Z,23.08
2023-03-21T11:10:33.653Z,17.15
2023-03-21T11:12:09.764Z,25.55
2023-03-21T11:13:25.246Z,17.00
2023-03-21T11:14:37.382Z,16.77
2023-03-21T11:15:53.092Z,19.30
2023-03-21T11:16:55.625Z,21.23
2023-03-21T11:18:13.243Z,20.50
2023-03-21T11:19:27.287Z,18.35
2023-03-21T11:20:31.620Z,18.40
2023-03-21T11:21:37.615Z,16.67
2023-03-21T11:22:43.641Z,22.25
2023-03-21T11:23:49.640Z,17.00
2023-03-21T11:24:54.532Z,19.20
2023-03-21T11:25:59.215Z,17.92
2023-03-21T11:27:07.374Z,19.55
2023-03-21T11:28:16.739Z,23.00
2023-03-21T11:29:31.504Z,14.93
2023-03-21T11:30:34.070Z,17.88
2023-03-21T11:31:40.738Z,18.27
2023-03-21T11:32:43.258Z,14.43
2023-03-21T11:33:57.208Z,18.10
2023-03-21T11:35:04.978Z,19.55
2023-03-21T11:36:28.513Z,23.20
2023-03-21T11:37:37.858Z,21.00
2023-03-21T11:38:40.633Z,17.33
2023-03-21T11:39:44.946Z,15.35
2023-03-21T11:40:56.944Z,21.08
2023-03-21T11:42:00.095Z,18.98
2023-03-21T11:43:24.427Z,17.05
2023-03-21T11:44:41.603Z,18.60
2023-03-21T11:45:58.494Z,22.20
2023-03-21T11:47:01.510Z,18.40
2023-03-21T11:48:13.561Z,15.38
2023-03-21T11:49:16.155Z,23.33
2023-03-21T11:50:27.193Z,20.67
2023-03-21T11:51:43.750Z,18.40
2023-03-21T11:53:03.919Z,17.80
2023-03-21T11:54:28.532Z,18.60
2023-03-21T11:55:41.771Z,16.52
2023-03-21T11:56:52.514Z,21.63
2023-03-21T11:59:17.473Z,31.30
2023-03-21T12:00:33.439Z,17.88
2023-03-21T12:01:53.957Z,20.42
2023-03-21T12:03:32.746Z,23.88
2023-03-21T12:05:00.556Z,20.60
2023-03-21T12:06:12.799Z,19.08
2023-03-21T12:07:33.081Z,23.98
2023-03-21T12:08:46.759Z,21.95
2023-03-21T12:10:30.448Z,27.13
2023-03-21T12:11:41.722Z,15.38
2023-03-21T12:12:54.228Z,22.00
2023-03-21T12:14:24.924Z,21.52
2023-03-21T12:15:39.537Z,23.15
2023-03-21T12:16:57.328Z,20.10
2023-03-21T12:18:21.449Z,22.58
2023-03-21T12:19:45.704Z,23.10
2023-03-21T12:20:48.089Z,22.30
2023-03-21T12:22:12.094Z,23.92
2023-03-21T12:23:32.806Z,17.83
2023-03-21T12:24:48.088Z,22.38
2023-03-21T12:26:02.491Z,23.48
2023-03-21T12:27:13.900Z,21.08
2023-03-21T12:28:33.227Z,23.52
2023-03-21T12:29:50.025Z,27.13
2023-03-21T12:31:42.418Z,28.10
2023-03-21T12:33:13.899Z,21.85
2023-03-21T12:34:24.933Z,21.27
2023-03-21T12:36:17.138Z,23.83
2023-03-21T12:37:33.693Z,26.52
2023-03-21T12:39:29.385Z,24.27
2023-03-21T12:40:55.561Z,26.15
2023-03-21T12:42:18.598Z,30.20
2023-03-21T12:43:51.780Z,24.35
2023-03-21T12:45:06.022Z,30.77
2023-03-21T12:46:42.425Z,28.48
2023-03-21T12:47:51.505Z,27.35
2023-03-21T12:49:00.483Z,29.67
2023-03-21T12:50:15.581Z,33.90
2023-03-21T12:51:26.625Z,33.10
2023-03-21T12:53:01.186Z,29.73
2023-03-21T12:54:03.594Z,29.27
2023-03-21T12:55:11.021Z,29.40
2023-03-21T12:56:20.868Z,28.05
2023-03-21T12:57:35.618Z,33.13
2023-03-21T12:58:47.989Z,27.13
2023-03-21T13:00:01.788Z,31.92
2023-03-21T13:01:06.902Z,28.95
2023-03-21T13:02:18.592Z,29.70
2023-03-21T13:03:42.109Z,34.25
2023-03-21T13:04:53.156Z,28.30
2023-03-21T13:05:59.153Z,26.48
2023-03-21T13:07:05.632Z,27.15
2023-03-21T13:08:32.164Z,29.50
2023-03-21T13:09:38.546Z,29.42
2023-03-21T13:10:43.677Z,26.45
2023-03-21T13:11:48.116Z,29.38
2023-03-21T13:13:02.403Z,27.13
2023-03-21T13:14:06.965Z,27.92
2023-03-21T13:15:21.727Z,35.22
2023-03-21T13:16:41.365Z,32.42
2023-03-21T13:17:51.616Z,30.70
2023-03-21T13:19:07.820Z,39.80
2023-03-21T13:20:26.521Z,32.03
2023-03-21T13:22:11.044Z,28.73
2023-03-21T13:23:13.934Z,32.20
2023-03-21T13:24:37.688Z,30.83
2023-03-21T13:25:47.295Z,32.13
2023-03-21T13:26:54.368Z,29.48
2023-03-21T13:28:05.424Z,30.92
2023-03-21T13:29:32.891Z,26.27
2023-03-21T13:30:35.703Z,28.17
2023-03-21T13:31:51.787Z,24.35
2023-03-21T13:33:16.813Z,27.52
2023-03-21T13:34:22.931Z,24.08
2023-03-21T13:35:34.356Z,25.23
2023-03-21T13:36:45.613Z,25.20
2023-03-21T13:37:58.454Z,28.40
2023-03-21T13:39:05.666Z,23.05
2023-03-21T13:40:41.026Z,22.60
2023-03-21T13:41:47.421Z,23.23
2023-03-21T13:43:00.263Z,24.15
2023-03-21T13:44:02.668Z,20.20
2023-03-21T13:45:09.932Z,22.55
2023-03-21T13:46:13.694Z,25.67
2023-03-21T13:47:37.707Z,26.63
2023-03-21T13:48:59.956Z,22.88
2023-03-21T13:50:17.694Z,28.95
2023-03-21T13:51:51.507Z,20.17
2023-03-21T13:53:15.529Z,23.98
2023-03-21T13:54:19.470Z,31.05
2023-03-21T13:55:22.107Z,24.58
2023-03-21T13:56:24.990Z,26.20
2023-03-21T13:57:27.421Z,25.65
2023-03-21T13:58:50.317Z,23.33
2023-03-21T14:00:42.033Z,31.33
2023-03-21T14:02:12.760Z,23.65
2023-03-21T14:03:20.674Z,20.35
2023-03-21T14:04:42.004Z,21.10
2023-03-21T14:05:50.142Z,18.33
2023-03-21T14:06:59.952Z,20.25
2023-03-21T14:08:15.198Z,18.77
2023-03-21T14:09:48.160Z,22.67
2023-03-21T14:10:56.436Z,20.48
2023-03-21T14:12:07.131Z,21.15
2023-03-21T14:13:17.449Z,23.83
2023-03-21T14:14:22.491Z,21.77
2023-03-21T14:15:29.802Z,19.60
2023-03-21T14:16:33.774Z,21.35
2023-03-21T14:17:36.408Z,20.40
2023-03-21T14:18:56.685Z,27.20
2023-03-21T14:20:39.051Z,19.58
2023-03-21T14:21:53.580Z,19.63
2023-03-21T14:22:56.570Z,22.80
2023-03-21T14:24:02.711Z,22.10
2023-03-21T14:25:12.646Z,25.20
2023-03-21T14:26:16.129Z,23.58
2023-03-21T14:27:19.849Z,21.73
2023-03-21T14:28:29.584Z,18.20
2023-03-21T14:29:35.360Z,22.55
2023-03-21T14:30:40.360Z,18.88
2023-03-21T14:31:47.011Z,26.00
2023-03-21T14:32:49.502Z,19.85
2023-03-21T14:33:56.217Z,21.52
2023-03-21T14:35:01.738Z,21.88
2023-03-21T14:36:09.041Z,22.45
2023-03-21T14:37:12.084Z,19.63
2023-03-21T14:38:26.701Z,23.95
2023-03-21T14:39:31.487Z,20.80
2023-03-21T14:40:33.910Z,20.85
2023-03-21T14:41:49.629Z,22.88
2023-03-21T14:42:53.043Z,23.92
2023-03-21T14:44:12.791Z,28.65
2023-03-21T14:45:25.520Z,22.92
2023-03-21T14:46:28.169Z,18.80
2023-03-21T14:47:32.344Z,22.70
2023-03-21T14:48:35.469Z,23.35
2023-03-21T14:49:38.828Z,22.50
2023-03-21T14:50:48.667Z,21.58
2023-03-21T14:51:53.470Z,20.42
2023-03-21T14:52:56.111Z,27.63
2023-03-21T14:53:58.628Z,21.50
2023-03-21T14:55:05.471Z,26.20
2023-03-21T14:56:27.193Z,24.98
2023-03-21T14:57:32.760Z,21.15